Cedar Bluff, AL

8:08 AM CDT on March 28, 2017 (GMT -0500)
Cowan Creek | | Change Station

Elev 585 ft 34.14 °N, 85.59 °W | Updated 5 seconds ago

Overcast
Overcast
62.5 °F
Feels Like 62.5 °F
N
0.0
Wind Variable Wind from North

Today
High -- | Low -- °F
--% Chance of Precip.
Yesterday
High -- | Low -- °F
Precip. -- in
Pressure 29.98 in
Visibility 0.2 miles
Clouds Overcast 100 ft
Dew Point 62 °F
Humidity 98%
Rainfall 0.62 in
Snow Depth Not available.
6:34 AM 7:00 PM
New Moon, 0% visible
METAR K4A9 281255Z AUTO 00000KT 1/4SM FG OVC001 14/12 A2998 RMK AO2
Pressure 29.98 in
Visibility 0.2 miles
Clouds Overcast 100 ft
Dew Point 62 °F
Humidity 98%
Rainfall 0.62 in
Snow Depth Not available.
6:34 AM 7:00 PM
New Moon, 0% visible
METAR K4A9 281255Z AUTO 00000KT 1/4SM FG OVC001 14/12 A2998 RMK AO2

Get Severe Weather Alerts

Thanks for signing up!

Be on the lookout for a verification email in your inbox.

You'll start receiving the daily forecast at 8 AM.

×

10-Day Weather Forecast

Almanac

Astronomy

Mar. 28, 2017 Rise Set
Actual Time
Civil Twilight
Nautical Twilight
Astronomical Twilight
Moon
Length of Visible Light
Length of Day
Tomorrow will be .
, % of the Moon is Illuminated

Today's Extremes

State Highs State Lows

Community

WunderPhotos

Upload Photos

1,962,540 photos uploaded!

WunderBlog® & News

Nearby

Air Quality

  Air Quality AQ Index Pollutant
Not available.

Snow Depth

Station Depth Elevation

Earthquake Activity

City Distance Mag. Time & Date
Minimum magnitude displayed is 2.5.

Earthquake Activity

City Distance Mag. Time & Date
Minimum magnitude displayed is 2.5.

Coastal Water Temperatures

Place Temperature

Stations

Nearby Weather Stations

Station Location Temp. Windchill Dew Point Humidity Wind Precip. Elev Updated Type
                   

Watches & Warnings

There are currently no watches in effect.